Airfield :







YOU CAN JOIN US ON...

 
LOGIN :

Register | Disclaimer

   EN    FR    IT 

 









Legend :    VFR   Marginal VFR   IFR   Intensive IFR   Very Intensive IFR
Visi :
Ceiling :
>= 8 km
>= 3000ft
5 to 8 km
1000 to 3000 ft
1500m to 5 km
500 to 1000 ft
800 to 1500m
200 to 500 ft
< 800m
< 200 ft
Symbols :   Thunderstorms  Fog  Heavy snow  Heavy precipitations  Wind > 20 kt






- Airport Elevation : 36 ft
- IATA code : PTP


TFFR - Le Raizet

CURRENT METAR :
  • 071000Z AUTO 00000KT 9999 FEW023 24/23 Q1013 NOSIG

EXPIRED METARs :
  • 070930Z AUTO VRB02KT CAVOK 24/23 Q1013 NOSIG
  • 070900Z AUTO 12003KT CAVOK 24/23 Q1012 NOSIG
  • 070830Z AUTO 11004KT CAVOK 25/23 Q1012 NOSIG
  • 070800Z AUTO 12003KT CAVOK 24/23 Q1012 NOSIG
  • 070730Z AUTO 11003KT 9999 FEW033 24/23 Q1012 NOSIG

TAF TAF TFFR
Valid from the 07 at 06:00 until the 08 at 06:00 UTC


070500Z 0706/0806 VRB02KT 9999 SCT035
BECMG 0712/0715 11010KT
PROB40
TEMPO 0719/0806 4000 SHRA BKN020TCU
BECMG 0723/0801 VRB02KT
TTZP FIR / North America



MET'MAP, your aeronautical weather chart ! - Copyright ORBIFLY December 2007 - Disclaimer

ORBIFLY MET'MAP TEAM :

Programming & Development : Alexandra Zaïnal
Original concept : Baudouin d'Aumeries
Technical & hardware support : Manuel Goepfert
Assistance : Marc-Olivier Méhu




SOURCES & CREDITS :

   NOAA